Time;durP1;ratioP1;P1;durP2;ratioP2;P2;SDS_P1;SDS_P2;PMS_P1;PMS_P2;Temp;Humidity;BMP_temperature;BMP_pressure;BME280_temperature;BME280_humidity;BME280_pressure;Samples;Min_cycle;Max_cycle;Signal;HPM_P1;HPM_P2
2021/11/10 00:02:09;;;;;;;12.27;8.90;;;;;;;4.65;87.29;102699.25;5012325;28;20191;-78
2021/11/10 00:04:35;;;;;;;12.37;8.43;;;;;;;4.56;87.60;102698.59;5013761;28;20175;-78
2021/11/10 00:07:01;;;;;;;14.77;8.30;;;;;;;4.56;87.02;102701.13;5012666;28;20198;-79
2021/11/10 00:09:28;;;;;;;14.43;8.53;;;;;;;4.55;86.99;102696.84;5013199;28;20719;-78
2021/11/10 00:11:54;;;;;;;11.53;8.60;;;;;;;4.55;87.54;102704.44;5011282;28;20209;-77
2021/11/10 00:14:20;;;;;;;11.83;8.23;;;;;;;4.54;87.09;102700.16;5011822;28;20194;-79
2021/11/10 00:16:46;;;;;;;13.07;8.17;;;;;;;4.55;87.58;102706.13;4995055;28;20215;-78
2021/11/10 00:19:11;;;;;;;14.00;8.80;;;;;;;4.56;87.51;102701.13;5012832;28;20226;-78
2021/11/10 00:21:37;;;;;;;12.90;8.80;;;;;;;4.57;87.42;102705.47;5013286;28;20655;-78
2021/11/10 00:24:02;;;;;;;18.60;9.30;;;;;;;4.54;88.15;102709.41;5011645;28;20191;-78
2021/11/10 00:26:28;;;;;;;19.10;9.53;;;;;;;4.56;88.05;102701.13;4994716;28;20661;-78
2021/11/10 00:28:54;;;;;;;12.20;9.30;;;;;;;4.58;87.59;102706.31;4995253;28;20180;-77
2021/11/10 00:31:20;;;;;;;14.83;9.17;;;;;;;4.61;87.94;102704.03;4997012;28;20710;-76
2021/11/10 00:33:46;;;;;;;16.27;9.97;;;;;;;4.57;88.22;102709.63;5012114;28;20652;-78
2021/11/10 00:36:13;;;;;;;14.70;10.27;;;;;;;4.56;87.61;102711.28;4992035;28;20327;-78
2021/11/10 00:38:39;;;;;;;15.50;9.53;;;;;;;4.48;87.32;102707.31;4992202;28;20208;-78
2021/11/10 00:41:06;;;;;;;17.83;10.00;;;;;;;4.49;87.38;102704.00;5005297;28;20211;-78
2021/11/10 00:43:32;;;;;;;16.37;10.13;;;;;;;4.46;87.43;102703.78;5013418;28;20194;-78
2021/11/10 00:45:58;;;;;;;12.03;8.97;;;;;;;4.43;87.51;102695.06;5013058;28;20176;-78
2021/11/10 00:48:23;;;;;;;13.23;9.43;;;;;;;4.44;87.03;102699.38;5011450;28;20667;-77
2021/11/10 00:50:49;;;;;;;16.47;9.13;;;;;;;4.38;87.72;102698.91;5011564;28;20218;-77
2021/11/10 00:53:15;;;;;;;13.73;9.13;;;;;;;4.39;87.24;102701.56;5013185;28;20283;-79
2021/11/10 00:55:41;;;;;;;15.93;10.30;;;;;;;4.36;87.82;102706.41;5011751;28;20211;-78
2021/11/10 00:58:08;;;;;;;12.77;9.33;;;;;;;4.37;87.54;102692.94;5013316;28;20221;-79
2021/11/10 01:00:36;;;;;;;14.07;9.63;;;;;;;4.37;87.73;102694.63;4995725;28;20289;-79
2021/11/10 01:03:02;;;;;;;13.17;9.03;;;;;;;4.43;88.36;102701.03;5012013;28;20198;-77
2021/11/10 01:05:28;;;;;;;13.00;9.33;;;;;;;4.47;88.88;102699.59;5012470;28;20191;-76
2021/11/10 01:07:55;;;;;;;16.90;9.83;;;;;;;4.49;89.06;102700.56;5014022;28;20274;-78
2021/11/10 01:10:22;;;;;;;14.90;8.73;;;;;;;4.40;88.51;102703.34;5015951;28;20203;-77
2021/11/10 01:12:48;;;;;;;14.77;8.83;;;;;;;4.39;88.07;102700.69;4999501;28;20213;-76
2021/11/10 01:15:14;;;;;;;12.83;8.57;;;;;;;4.37;88.21;102698.03;5015457;28;20211;-78
2021/11/10 01:17:40;;;;;;;14.83;7.90;;;;;;;4.36;87.59;102692.84;5015246;28;20179;-77
2021/11/10 01:20:07;;;;;;;16.20;7.93;;;;;;;4.35;87.24;102696.16;5016156;28;20766;-78
2021/11/10 01:22:33;;;;;;;14.73;8.50;;;;;;;4.35;88.24;102686.91;5015808;28;20610;-78
2021/11/10 01:24:59;;;;;;;13.47;7.97;;;;;;;4.35;88.01;102684.38;5015566;28;20265;-78
2021/11/10 01:27:28;;;;;;;13.03;7.60;;;;;;;4.31;87.82;102686.53;4999427;28;20599;-78
2021/11/10 01:29:54;;;;;;;12.13;7.47;;;;;;;4.36;88.09;102678.53;5012879;28;20691;-77
2021/11/10 01:32:19;;;;;;;12.87;7.27;;;;;;;4.38;88.17;102671.88;5013624;28;20183;-78
2021/11/10 01:34:46;;;;;;;11.33;7.50;;;;;;;4.36;87.88;102678.53;4998133;28;20187;-77
2021/11/10 01:37:14;;;;;;;11.50;7.23;;;;;;;4.36;87.49;102680.16;5013719;28;20188;-78
2021/11/10 01:39:41;;;;;;;11.87;7.20;;;;;;;4.33;87.70;102675.75;4997465;28;20290;-78
2021/11/10 01:42:09;;;;;;;9.80;6.67;;;;;;;4.30;87.99;102672.13;4995432;28;20208;-78
2021/11/10 01:44:41;;;;;;;11.13;7.23;;;;;;;4.23;87.66;102672.44;4998805;28;20241;-78
2021/11/10 01:47:10;;;;;;;12.47;7.33;;;;;;;4.24;87.70;102667.47;4998825;28;20660;-78
2021/11/10 01:49:40;;;;;;;11.87;7.57;;;;;;;4.28;88.01;102666.06;5014959;28;20290;-78
2021/11/10 01:52:08;;;;;;;11.30;7.63;;;;;;;4.24;87.90;102659.84;4999256;28;20282;-79
2021/11/10 01:54:35;;;;;;;14.97;8.50;;;;;;;4.23;88.12;102659.78;4999654;28;20191;-78
2021/11/10 01:57:04;;;;;;;11.60;7.67;;;;;;;4.21;88.12;102662.19;5015682;28;20294;-79
2021/11/10 01:59:40;;;;;;;13.37;7.83;;;;;;;4.19;88.00;102655.25;4995912;28;20625;-79
2021/11/10 02:02:10;;;;;;;14.93;6.97;;;;;;;4.11;87.63;102643.66;4997273;28;20186;-77
2021/11/10 02:04:39;;;;;;;13.37;7.67;;;;;;;4.12;87.04;102641.22;4999307;28;20171;-78
2021/11/10 02:07:06;;;;;;;11.10;7.70;;;;;;;4.13;87.24;102644.63;5013815;28;20198;-77
2021/11/10 02:09:33;;;;;;;12.60;7.90;;;;;;;4.14;87.55;102643.88;5015450;28;20202;-76
2021/11/10 02:12:01;;;;;;;10.23;7.13;;;;;;;4.10;87.69;102645.28;4997271;28;20221;-78
2021/11/10 02:14:29;;;;;;;9.80;7.03;;;;;;;4.09;87.68;102638.47;5013430;28;20183;-78
2021/11/10 02:16:55;;;;;;;10.93;7.40;;;;;;;4.07;87.03;102640.03;5013235;28;20214;-78
2021/11/10 02:19:24;;;;;;;10.77;6.93;;;;;;;4.09;87.14;102641.00;5038663;22;20324;-79
2021/11/10 02:22:03;;;;;;;11.33;7.43;;;;;;;3.98;86.88;102636.81;5014394;28;20187;-77
2021/11/10 02:24:31;;;;;;;10.77;7.23;;;;;;;3.93;87.38;102630.50;5014908;28;20277;-78
2021/11/10 02:26:59;;;;;;;10.53;7.10;;;;;;;3.95;87.09;102631.50;5025932;28;20555;-79
2021/11/10 02:29:31;;;;;;;10.87;6.77;;;;;;;3.91;86.99;102634.56;5039592;28;20205;-78
2021/11/10 02:31:58;;;;;;;9.77;7.07;;;;;;;3.90;87.14;102632.81;5049933;28;20185;-79
2021/11/10 02:34:24;;;;;;;13.03;7.73;;;;;;;3.87;87.27;102630.03;5037683;28;20194;-78
2021/11/10 02:36:50;;;;;;;12.70;7.33;;;;;;;3.80;87.12;102624.41;5052255;28;20240;-78
2021/11/10 02:39:20;;;;;;;12.87;7.53;;;;;;;3.81;87.43;102626.16;5053840;28;20246;-78
2021/11/10 02:41:49;;;;;;;12.20;7.07;;;;;;;3.79;87.28;102618.47;5049841;28;20709;-77
2021/11/10 02:44:20;;;;;;;11.27;7.83;;;;;;;3.82;87.22;102605.16;5035705;28;20187;-78
2021/11/10 02:46:48;;;;;;;11.23;7.87;;;;;;;3.83;87.57;102606.91;5050154;28;20728;-78
2021/11/10 02:49:14;;;;;;;10.37;7.37;;;;;;;3.80;86.94;102606.66;5054580;28;20194;-78
2021/11/10 02:52:14;;;;;;;10.27;7.27;;;;;;;3.74;87.30;102611.28;5037409;28;20284;-76
2021/11/10 02:54:45;;;;;;;10.90;7.27;;;;;;;3.69;86.96;102599.94;4998797;28;20293;-77
2021/11/10 02:57:11;;;;;;;10.30;7.17;;;;;;;3.67;86.73;102602.34;5054350;28;20210;-78
2021/11/10 02:59:37;;;;;;;13.50;7.33;;;;;;;3.64;87.01;102603.78;5055083;28;20212;-78
2021/11/10 03:02:05;;;;;;;13.63;6.60;;;;;;;3.61;86.60;102606.97;5052309;28;20186;-78
2021/11/10 03:04:37;;;;;;;12.67;7.33;;;;;;;3.53;86.52;102597.00;5054531;28;20607;-78
2021/11/10 03:07:04;;;;;;;13.60;7.47;;;;;;;3.53;86.76;102590.31;5054047;28;20232;-78
2021/11/10 03:09:32;;;;;;;12.07;7.23;;;;;;;3.52;86.71;102591.09;5042195;28;20207;-77
2021/11/10 03:12:05;;;;;;;9.47;6.93;;;;;;;3.54;87.32;102589.53;5033359;28;20186;-78
2021/11/10 03:14:34;;;;;;;11.47;7.17;;;;;;;3.55;87.08;102582.84;5033309;28;20244;-78
2021/11/10 03:17:02;;;;;;;11.63;7.57;;;;;;;3.52;87.04;102587.66;5051655;28;20222;-78
2021/11/10 03:19:31;;;;;;;9.60;6.93;;;;;;;3.53;87.38;102567.53;5052487;28;20209;-78
2021/11/10 03:21:57;;;;;;;13.13;6.97;;;;;;;3.52;87.14;102582.59;5035624;28;20186;-76
2021/11/10 03:24:22;;;;;;;10.97;7.10;;;;;;;3.56;87.98;102577.00;5052403;28;20200;-77
2021/11/10 03:26:48;;;;;;;10.97;7.30;;;;;;;3.51;86.89;102580.84;5035637;28;20182;-78
2021/11/10 03:29:14;;;;;;;9.40;7.03;;;;;;;3.42;87.48;102587.72;5052367;28;20205;-78
2021/11/10 03:31:42;;;;;;;16.03;7.63;;;;;;;3.44;88.03;102576.94;5038198;28;20187;-78
2021/11/10 03:34:10;;;;;;;13.13;7.43;;;;;;;3.40;87.88;102580.03;5032327;28;20189;-78
2021/11/10 03:36:36;;;;;;;14.80;7.63;;;;;;;3.45;87.62;102588.84;5033936;28;20293;-76
2021/11/10 03:39:06;;;;;;;13.27;7.87;;;;;;;3.41;88.39;102599.50;5033244;28;20182;-77
2021/11/10 03:41:34;;;;;;;11.90;7.67;;;;;;;3.46;88.04;102595.69;5053573;28;20642;-78
2021/11/10 03:44:00;;;;;;;10.47;7.30;;;;;;;3.31;88.13;102591.97;5052212;28;20190;-78
2021/11/10 03:46:26;;;;;;;10.10;7.20;;;;;;;3.33;88.19;102595.53;5051873;28;20174;-79
2021/11/10 03:48:53;;;;;;;11.40;7.17;;;;;;;3.36;87.04;102600.81;5051394;28;20182;-78
2021/11/10 03:51:19;;;;;;;16.90;7.17;;;;;;;3.34;87.31;102603.97;5052110;28;20189;-78
2021/11/10 03:53:46;;;;;;;10.93;7.10;;;;;;;3.30;86.85;102601.97;5048039;28;20273;-78
2021/11/10 03:56:12;;;;;;;10.77;7.47;;;;;;;3.27;87.15;102595.03;5031991;28;20257;-78
2021/11/10 03:58:39;;;;;;;14.67;8.43;;;;;;;3.37;88.47;102595.00;5032596;28;20178;-78
2021/11/10 04:01:05;;;;;;;13.57;9.10;;;;;;;3.45;89.82;102603.16;5033251;28;20213;-77
2021/11/10 04:03:31;;;;;;;12.03;8.63;;;;;;;3.43;89.94;102602.16;5031701;28;20198;-78
2021/11/10 04:05:57;;;;;;;12.40;8.00;;;;;;;3.41;89.30;102604.56;5031471;28;20178;-76
2021/11/10 04:08:23;;;;;;;13.63;7.53;;;;;;;3.39;89.07;102602.69;5022337;28;20178;-78
2021/11/10 04:10:50;;;;;;;15.33;7.67;;;;;;;3.29;88.40;102603.66;5051633;28;20210;-78
2021/11/10 04:13:16;;;;;;;11.90;7.37;;;;;;;3.25;88.03;102599.09;5049884;28;20564;-78
2021/11/10 04:15:45;;;;;;;11.60;7.30;;;;;;;3.29;88.43;102595.16;5048866;28;20220;-77
2021/11/10 04:18:11;;;;;;;11.33;7.80;;;;;;;3.31;88.48;102599.56;5051021;28;20691;-77
2021/11/10 04:20:37;;;;;;;13.00;7.13;;;;;;;3.33;88.94;102602.22;5049321;28;20633;-77
2021/11/10 04:23:03;;;;;;;12.67;7.97;;;;;;;3.32;88.43;102610.59;5044443;28;20712;-78
2021/11/10 04:25:28;;;;;;;13.33;7.77;;;;;;;3.35;88.53;102608.31;5048932;28;20220;-76
2021/11/10 04:27:54;;;;;;;11.83;7.73;;;;;;;3.31;88.38;102613.91;5048969;28;20281;-78
2021/11/10 04:30:22;;;;;;;12.40;7.73;;;;;;;3.27;88.73;102611.88;5033818;28;20201;-78
2021/11/10 04:32:47;;;;;;;14.87;7.70;;;;;;;3.27;88.45;102614.41;5033968;28;20325;-78
2021/11/10 04:35:15;;;;;;;13.70;7.47;;;;;;;3.19;88.77;102600.28;5042523;28;20232;-78
2021/11/10 04:37:43;;;;;;;10.00;7.40;;;;;;;3.20;87.93;102605.47;5045061;28;20274;-77
2021/11/10 04:40:10;;;;;;;11.37;7.60;;;;;;;3.21;88.12;102604.69;5050744;28;20236;-75
2021/11/10 04:42:37;;;;;;;16.00;7.80;;;;;;;3.21;88.07;102607.22;5033184;28;20186;-78
2021/11/10 04:45:08;;;;;;;10.00;7.23;;;;;;;3.20;88.36;102607.09;5050944;28;20193;-77
2021/11/10 04:47:33;;;;;;;15.30;7.63;;;;;;;3.24;87.98;102606.59;5047955;28;20196;-77
2021/11/10 04:49:59;;;;;;;11.90;7.47;;;;;;;3.25;88.72;102606.72;5034270;28;20201;-77
2021/11/10 04:52:25;;;;;;;10.67;7.43;;;;;;;3.25;88.89;102599.09;5047350;28;20194;-77
2021/11/10 04:54:51;;;;;;;12.07;7.03;;;;;;;3.17;88.27;102609.44;5050737;28;20277;-77
2021/11/10 04:57:17;;;;;;;13.20;7.40;;;;;;;3.15;87.93;102598.28;5050006;28;20186;-78
2021/11/10 04:59:44;;;;;;;10.10;6.90;;;;;;;3.15;87.94;102593.22;5050550;28;20202;-77
2021/11/10 05:04:40;;;;;;;12.87;8.10;;;;;;;3.18;88.63;102594.34;5033114;28;20651;-78
2021/11/10 05:07:09;;;;;;;17.23;7.83;;;;;;;3.14;88.46;102594.91;5049356;28;20308;-77
2021/11/10 05:09:35;;;;;;;14.57;7.47;;;;;;;3.12;88.79;102595.53;5049711;28;20674;-78
2021/11/10 05:12:04;;;;;;;10.97;7.03;;;;;;;3.06;88.49;102595.03;5043409;28;20190;-78
2021/11/10 05:14:31;;;;;;;11.63;7.70;;;;;;;3.10;87.78;102599.59;5050238;28;20562;-77
2021/11/10 05:16:58;;;;;;;14.07;8.50;;;;;;;3.15;89.07;102593.22;5033416;28;20205;-76
2021/11/10 05:19:23;;;;;;;12.53;7.87;;;;;;;3.11;89.03;102597.19;5030572;28;20206;-77
2021/11/10 05:21:49;;;;;;;11.17;8.13;;;;;;;3.10;89.29;102594.53;5031697;28;20710;-78
2021/11/10 05:24:14;;;;;;;12.03;7.03;;;;;;;3.09;88.60;102590.22;5031920;28;20194;-78
2021/11/10 05:26:39;;;;;;;13.10;7.17;;;;;;;2.98;88.69;102573.31;5032378;28;20245;-78
2021/11/10 05:29:07;;;;;;;13.17;7.00;;;;;;;2.93;88.08;102584.75;5032880;28;20198;-77
2021/11/10 05:31:33;;;;;;;11.47;7.90;;;;;;;2.98;88.85;102575.84;5032186;28;20214;-78
2021/11/10 05:33:58;;;;;;;14.50;7.53;;;;;;;2.93;88.19;102583.09;5048941;28;20198;-77
2021/11/10 05:36:24;;;;;;;9.90;7.43;;;;;;;2.97;88.38;102571.56;5032777;28;20210;-76
2021/11/10 05:38:49;;;;;;;9.90;7.50;;;;;;;2.90;88.41;102580.31;5032204;28;20703;-76
2021/11/10 05:41:15;;;;;;;14.40;9.03;;;;;;;2.85;88.53;102580.75;5032767;28;20647;-78
2021/11/10 05:43:41;;;;;;;12.27;7.40;;;;;;;2.90;88.17;102579.47;5032221;28;20219;-76
2021/11/10 05:46:07;;;;;;;14.53;8.20;;;;;;;2.88;87.60;102575.91;5032198;28;20187;-78
2021/11/10 05:48:32;;;;;;;11.30;7.20;;;;;;;2.83;88.21;102585.69;5018720;28;20183;-78
2021/11/10 05:50:58;;;;;;;10.07;7.67;;;;;;;2.87;87.95;102576.69;5050146;28;20213;-77
2021/11/10 05:53:23;;;;;;;13.17;7.47;;;;;;;2.84;88.06;102571.38;5053127;28;20201;-77
2021/11/10 05:55:52;;;;;;;10.37;6.63;;;;;;;2.82;87.79;102573.81;5055978;28;20210;-78
2021/11/10 05:58:21;;;;;;;12.37;7.27;;;;;;;2.69;87.45;102573.63;5039733;28;20191;-77
2021/11/10 06:00:46;;;;;;;10.27;7.10;;;;;;;2.69;87.66;102581.22;5039480;28;20576;-78
2021/11/10 06:03:12;;;;;;;9.87;7.00;;;;;;;2.71;87.99;102577.13;5046163;28;20201;-77
2021/11/10 06:05:37;;;;;;;9.70;7.43;;;;;;;2.68;87.77;102576.03;5036093;28;20194;-78
2021/11/10 06:08:03;;;;;;;15.37;8.13;;;;;;;2.73;87.90;102574.72;5035770;28;20186;-78
2021/11/10 06:10:28;;;;;;;13.10;7.43;;;;;;;2.72;88.63;102568.78;5036047;28;20226;-78
2021/11/10 06:12:54;;;;;;;13.33;8.73;;;;;;;2.69;88.12;102573.63;5036909;28;20671;-77
2021/11/10 06:15:19;;;;;;;13.40;7.90;;;;;;;2.68;87.81;102564.28;5036495;28;20226;-78
2021/11/10 06:17:45;;;;;;;13.77;8.67;;;;;;;2.61;87.89;102571.22;5047490;28;20193;-77
2021/11/10 06:20:11;;;;;;;12.27;8.47;;;;;;;2.65;88.21;102579.19;5055811;28;20282;-77
2021/11/10 06:22:37;;;;;;;11.10;7.40;;;;;;;2.69;87.52;102576.16;5056527;28;20186;-77
2021/11/10 06:25:04;;;;;;;9.80;6.93;;;;;;;2.61;88.05;102568.72;5049118;28;20714;-77
2021/11/10 06:27:30;;;;;;;13.17;7.13;;;;;;;2.59;88.41;102566.09;5038144;28;20183;-77
2021/11/10 06:29:56;;;;;;;13.07;7.30;;;;;;;2.63;87.90;102570.63;5036485;28;20233;-77
2021/11/10 06:32:21;;;;;;;11.87;7.00;;;;;;;2.59;87.64;102565.19;5050404;28;20178;-77
2021/11/10 06:34:46;;;;;;;10.63;6.70;;;;;;;2.56;88.07;102573.41;5055466;28;20217;-77
2021/11/10 06:37:12;;;;;;;11.33;6.97;;;;;;;2.62;87.69;102581.47;5048535;28;20782;-78
2021/11/10 06:39:37;;;;;;;10.77;6.57;;;;;;;2.64;88.24;102585.03;5034833;28;20285;-77
2021/11/10 06:42:04;;;;;;;12.33;7.70;;;;;;;2.71;89.06;102589.78;5035669;28;20187;-78
2021/11/10 06:44:29;;;;;;;12.37;8.67;;;;;;;2.70;89.73;102584.59;5035176;28;20671;-77
2021/11/10 06:46:59;;;;;;;12.80;8.13;;;;;;;2.68;89.21;102581.09;5050115;28;20250;-78
2021/11/10 06:49:24;;;;;;;11.97;7.73;;;;;;;2.67;88.98;102584.38;5055712;28;20614;-77
2021/11/10 06:51:50;;;;;;;10.00;7.53;;;;;;;2.70;88.32;102587.13;5056994;28;20189;-77
2021/11/10 06:54:15;;;;;;;11.17;7.17;;;;;;;2.65;88.93;102579.19;5057359;28;20213;-78
2021/11/10 06:56:40;;;;;;;13.30;7.83;;;;;;;2.64;88.45;102581.59;5056482;28;20202;-78
2021/11/10 06:59:06;;;;;;;14.47;7.50;;;;;;;2.66;88.20;102586.00;5053821;28;20192;-78
2021/11/10 07:01:31;;;;;;;13.43;8.10;;;;;;;2.68;89.03;102578.56;5035811;28;20217;-77
2021/11/10 07:03:56;;;;;;;11.80;7.10;;;;;;;2.75;88.53;102573.22;5034872;28;20187;-78
2021/11/10 07:06:22;;;;;;;12.43;7.70;;;;;;;2.79;88.94;102565.09;5034937;28;20174;-76
2021/11/10 07:08:47;;;;;;;11.53;6.83;;;;;;;2.79;88.46;102568.50;5055648;28;20659;-78
2021/11/10 07:11:12;;;;;;;11.70;6.83;;;;;;;2.78;88.31;102575.97;5055462;28;20217;-78
2021/11/10 07:13:38;;;;;;;10.07;6.80;;;;;;;2.83;88.22;102579.75;5040017;28;20190;-77
2021/11/10 07:16:04;;;;;;;14.60;7.00;;;;;;;2.86;88.26;102578.34;5057397;28;20653;-77
2021/11/10 07:18:29;;;;;;;10.63;6.43;;;;;;;2.86;88.40;102580.88;5040064;28;20197;-78
2021/11/10 07:20:55;;;;;;;10.93;6.83;;;;;;;2.89;88.04;102575.19;5045199;28;20214;-78
2021/11/10 07:23:20;;;;;;;12.47;6.47;;;;;;;2.93;87.88;102565.41;5055254;28;20197;-77
2021/11/10 07:25:45;;;;;;;8.77;6.73;;;;;;;2.95;87.81;102571.44;5037771;28;20182;-78
2021/11/10 07:28:11;;;;;;;9.97;7.40;;;;;;;2.91;88.43;102583.75;5052252;28;20213;-78
2021/11/10 07:30:37;;;;;;;14.40;7.77;;;;;;;2.96;88.50;102578.28;5037653;28;20199;-78
2021/11/10 07:33:03;;;;;;;12.43;7.57;;;;;;;2.95;87.90;102578.16;5034004;28;20675;-78
2021/11/10 07:35:28;;;;;;;13.87;7.57;;;;;;;3.04;88.56;102571.28;5036173;28;20206;-79
2021/11/10 07:37:53;;;;;;;13.63;7.67;;;;;;;3.16;88.97;102568.03;5050270;28;20645;-77
2021/11/10 07:40:19;;;;;;;13.20;8.43;;;;;;;3.23;88.56;102554.22;5036760;28;20210;-77
2021/11/10 07:42:45;;;;;;;11.17;8.60;;;;;;;3.30;89.38;102551.34;5053449;28;20200;-78
2021/11/10 07:45:16;;;;;;;11.90;8.17;;;;;;;3.29;89.60;102555.56;5054158;28;20217;-78
2021/11/10 07:47:41;;;;;;;10.60;7.87;;;;;;;3.40;89.29;102571.56;5052598;28;20174;-78
2021/11/10 07:50:13;;;;;;;13.90;7.97;;;;;;;3.50;89.76;102563.88;5054762;28;20770;-77
2021/11/10 07:52:38;;;;;;;11.73;7.60;;;;;;;3.57;90.35;102558.50;5052262;28;20197;-78
2021/11/10 07:55:04;;;;;;;11.60;7.33;;;;;;;3.65;90.63;102544.75;5044838;28;20189;-77
2021/11/10 07:57:30;;;;;;;12.60;7.73;;;;;;;3.73;90.33;102546.22;5032399;28;20672;-77
2021/11/10 07:59:55;;;;;;;11.77;7.40;;;;;;;3.73;90.18;102552.13;5033199;28;20266;-77
2021/11/10 08:02:21;;;;;;;11.70;7.80;;;;;;;3.88;90.34;102544.78;5032554;28;20626;-75
2021/11/10 08:04:47;;;;;;;13.07;8.10;;;;;;;4.07;90.74;102535.22;5030419;28;20217;-75
2021/11/10 08:07:12;;;;;;;15.70;7.77;;;;;;;4.20;90.12;102533.69;5034568;28;20249;-77
2021/11/10 08:09:37;;;;;;;12.20;8.30;;;;;;;4.27;90.10;102542.59;5034293;28;20190;-78
2021/11/10 08:12:03;;;;;;;12.47;7.67;;;;;;;4.29;89.32;102529.28;5015731;28;20182;-77
2021/11/10 08:14:29;;;;;;;11.03;8.07;;;;;;;4.42;88.77;102543.72;5032798;28;20175;-77
2021/11/10 08:16:55;;;;;;;12.50;7.40;;;;;;;4.53;88.88;102543.69;5032762;28;20229;-77
2021/11/10 08:19:20;;;;;;;11.37;7.83;;;;;;;4.66;88.45;102542.88;5032360;28;20268;-77
2021/11/10 08:21:46;;;;;;;11.17;7.13;;;;;;;4.82;87.54;102530.47;5034045;28;20197;-78
2021/11/10 08:24:11;;;;;;;11.03;7.53;;;;;;;4.99;87.43;102538.50;5052176;28;20197;-77
2021/11/10 08:26:37;;;;;;;14.53;7.53;;;;;;;5.13;86.45;102547.94;5048190;28;20181;-77
2021/11/10 08:29:02;;;;;;;10.53;7.47;;;;;;;5.28;85.66;102558.22;5050929;28;20300;-78
2021/11/10 08:31:28;;;;;;;9.37;7.10;;;;;;;5.51;85.82;102556.47;5050630;28;20264;-77
2021/11/10 08:33:53;;;;;;;11.10;6.67;;;;;;;5.70;84.38;102548.38;5052102;28;20190;-78
2021/11/10 08:36:18;;;;;;;11.10;7.27;;;;;;;5.86;83.31;102556.28;5050644;28;20220;-77
2021/11/10 08:38:44;;;;;;;10.23;6.43;;;;;;;6.01;82.43;102564.91;5034137;28;20189;-77
2021/11/10 08:41:09;;;;;;;9.40;6.70;;;;;;;6.12;82.24;102559.72;5032095;28;20214;-77
2021/11/10 08:43:35;;;;;;;11.70;7.17;;;;;;;6.28;82.11;102564.16;5032847;28;20187;-77
2021/11/10 08:46:00;;;;;;;12.93;6.77;;;;;;;7.33;78.76;102563.16;5032062;28;20540;-78
2021/11/10 08:48:26;;;;;;;11.30;6.13;;;;;;;10.15;67.37;102546.44;5031592;28;20290;-78
2021/11/10 08:50:52;;;;;;;8.87;5.57;;;;;;;12.93;57.48;102540.59;5033199;28;20289;-78
2021/11/10 08:53:21;;;;;;;9.13;5.83;;;;;;;14.95;51.76;102528.53;5032815;28;20192;-78
2021/11/10 08:55:48;;;;;;;11.97;5.43;;;;;;;15.49;48.49;102527.50;5034944;28;20622;-79
2021/11/10 08:58:14;;;;;;;7.03;4.87;;;;;;;16.38;46.85;102528.00;5053730;28;20205;-79
2021/11/10 09:00:41;;;;;;;9.90;5.40;;;;;;;16.86;44.69;102520.47;5038561;28;20320;-78
2021/11/10 09:03:06;;;;;;;6.07;4.77;;;;;;;15.58;46.92;102519.13;5044674;28;20650;-76
2021/11/10 09:05:32;;;;;;;7.97;5.77;;;;;;;16.71;45.64;102522.75;5051916;28;20228;-77
2021/11/10 09:08:00;;;;;;;8.57;5.63;;;;;;;13.84;51.68;102537.88;5052140;28;20194;-78
2021/11/10 09:10:25;;;;;;;6.67;5.17;;;;;;;10.80;62.62;102552.97;5048219;28;20649;-78
2021/11/10 09:12:51;;;;;;;8.83;6.07;;;;;;;10.63;64.17;102548.75;5048961;28;20178;-78
2021/11/10 09:15:18;;;;;;;7.43;6.23;;;;;;;14.05;54.94;102533.41;5051034;28;20186;-78
2021/11/10 09:17:44;;;;;;;6.40;5.73;;;;;;;17.42;45.51;102517.31;5050351;28;20190;-78
2021/11/10 09:20:19;;;;;;;7.80;5.60;;;;;;;18.02;43.79;102508.00;5048772;28;20271;-78
2021/11/10 09:22:45;;;;;;;6.40;5.80;;;;;;;18.18;42.66;102504.78;5033397;28;20249;-78
2021/11/10 09:25:18;;;;;;;7.63;6.03;;;;;;;18.55;42.25;102507.97;5032965;28;20182;-78
2021/11/10 09:27:43;;;;;;;7.20;5.67;;;;;;;19.03;41.31;102502.53;5034750;28;20679;-78
2021/11/10 09:30:15;;;;;;;8.83;5.73;;;;;;;18.84;42.06;102508.34;5037513;28;20210;-79
2021/11/10 09:32:41;;;;;;;8.63;6.17;;;;;;;18.50;42.54;102516.53;5047724;28;20247;-79
2021/11/10 09:35:10;;;;;;;8.83;5.90;;;;;;;19.21;41.29;102510.53;5058364;28;20580;-78
2021/11/10 09:37:37;;;;;;;7.40;6.10;;;;;;;18.96;41.06;102493.78;5046124;28;20195;-77
2021/11/10 09:40:04;;;;;;;7.40;6.30;;;;;;;19.66;40.53;102496.28;5036103;28;20756;-77
2021/11/10 09:42:30;;;;;;;7.43;6.00;;;;;;;19.98;40.15;102496.53;5049552;28;20229;-77
2021/11/10 09:44:56;;;;;;;17.53;7.67;;;;;;;18.38;42.62;102514.63;5057355;28;20752;-77
2021/11/10 09:47:21;;;;;;;16.17;7.73;;;;;;;18.35;42.40;102524.97;5057153;28;20273;-78
2021/11/10 09:49:48;;;;;;;8.33;5.90;;;;;;;18.29;43.15;102522.25;5057966;28;20201;-78
2021/11/10 09:52:14;;;;;;;8.07;6.53;;;;;;;18.34;43.22;102528.41;5057235;28;20244;-78
2021/11/10 09:54:40;;;;;;;10.03;6.53;;;;;;;20.42;38.69;102514.25;5056967;28;20190;-78
2021/11/10 09:57:06;;;;;;;8.93;6.13;;;;;;;16.88;45.49;102530.03;5038839;28;20225;-78
2021/11/10 09:59:31;;;;;;;9.83;6.13;;;;;;;16.54;46.31;102524.94;5020868;28;20198;-78
2021/11/10 10:01:57;;;;;;;9.00;6.40;;;;;;;16.72;46.85;102517.59;5037459;28;20210;-78
2021/11/10 10:04:23;;;;;;;7.70;6.23;;;;;;;14.87;50.77;102522.28;5036952;28;20183;-78
2021/11/10 10:06:48;;;;;;;8.97;6.20;;;;;;;16.54;47.77;102511.16;5044270;28;20170;-77
2021/11/10 10:09:14;;;;;;;9.60;6.43;;;;;;;15.45;49.94;102517.03;5055340;28;20202;-78
2021/11/10 10:11:40;;;;;;;10.80;7.00;;;;;;;17.29;46.56;102518.78;5056967;28;20188;-77
2021/11/10 10:14:05;;;;;;;9.67;7.23;;;;;;;15.71;50.42;102529.78;5056341;28;20253;-79
2021/11/10 10:16:31;;;;;;;11.77;6.80;;;;;;;15.15;53.33;102529.97;5055815;28;20210;-79
2021/11/10 10:19:11;;;;;;;10.77;6.43;;;;;;;15.70;50.96;102527.19;5055916;28;20186;-78
2021/11/10 10:21:40;;;;;;;9.53;6.33;;;;;;;15.56;52.16;102518.22;5058013;28;20194;-77
2021/11/10 10:24:15;;;;;;;12.93;6.67;;;;;;;15.81;52.18;102521.47;5056179;28;20559;-76
2021/11/10 10:26:40;;;;;;;9.83;6.43;;;;;;;15.22;52.96;102520.69;5055746;28;20224;-78
2021/11/10 10:29:09;;;;;;;10.97;6.97;;;;;;;15.26;52.86;102514.78;5040290;28;20209;-79
2021/11/10 10:31:38;;;;;;;8.33;6.50;;;;;;;15.24;52.15;102517.31;5038252;28;20198;-78
2021/11/10 10:34:12;;;;;;;12.57;7.07;;;;;;;15.48;50.73;102519.72;5057352;28;20206;-77
2021/11/10 10:36:41;;;;;;;12.30;6.60;;;;;;;15.13;52.31;102515.25;5055484;28;20773;-78
2021/11/10 10:39:10;;;;;;;156.27;25.83;;;;;;;16.08;51.72;102516.97;5056862;28;20201;-78
2021/11/10 10:41:42;;;;;;;23.20;8.87;;;;;;;16.40;49.01;102518.59;5055959;28;20186;-78
2021/11/10 10:44:10;;;;;;;8.47;6.33;;;;;;;17.09;49.52;102509.72;5056902;28;20182;-78
2021/11/10 10:46:39;;;;;;;10.87;6.70;;;;;;;17.51;47.69;102507.13;5043274;28;20186;-78
2021/11/10 10:49:13;;;;;;;7.73;5.80;;;;;;;16.64;47.82;102511.41;5038586;28;20186;-79
2021/11/10 10:51:38;;;;;;;10.63;6.53;;;;;;;16.12;49.38;102513.59;5038583;28;20190;-79
2021/11/10 10:54:09;;;;;;;10.40;6.37;;;;;;;16.71;49.26;102499.47;5057397;28;20216;-77
2021/11/10 10:56:36;;;;;;;8.60;6.07;;;;;;;20.18;40.83;102481.97;5057072;28;20210;-78
2021/11/10 10:59:09;;;;;;;10.03;5.87;;;;;;;21.15;38.62;102486.81;5040123;28;20194;-79
2021/11/10 11:01:36;;;;;;;8.30;5.75;;;;;;;23.18;36.81;102469.09;5036722;28;20273;-78
2021/11/10 11:04:02;;;;;;;7.97;6.07;;;;;;;21.51;38.29;102477.28;5036512;28;20285;-78
2021/11/10 11:06:32;;;;;;;6.90;5.47;;;;;;;23.32;35.26;102467.28;5037744;28;20258;-79
2021/11/10 11:09:20;;;;;;;8.50;5.43;;;;;;;23.79;35.51;102464.28;5038555;28;20187;-78
2021/11/10 11:11:58;;;;;;;10.73;6.63;;;;;;;21.50;37.26;102477.28;5038519;28;20191;-79
2021/11/10 11:14:37;;;;;;;8.20;5.93;;;;;;;22.07;38.26;102456.44;5045120;28;20205;-79
2021/11/10 11:17:04;;;;;;;7.43;5.30;;;;;;;20.92;40.84;102462.41;5056229;28;20705;-79
2021/11/10 11:19:36;;;;;;;8.13;5.68;;;;;;;21.20;39.57;102459.91;5056281;28;20229;-78
2021/11/10 11:22:02;;;;;;;6.80;5.80;;;;;;;21.34;38.90;102459.91;5056669;28;20207;-79
2021/11/10 11:24:36;;;;;;;7.72;5.80;;;;;;;20.41;39.86;102465.63;5057051;28;20580;-79
2021/11/10 11:27:14;;;;;;;7.97;6.18;;;;;;;20.85;39.57;102460.59;5051729;28;20186;-78